Time;durP1;ratioP1;P1;durP2;ratioP2;P2;SDS_P1;SDS_P2;PMS_P1;PMS_P2;Temp;Humidity;BMP_temperature;BMP_pressure;BME280_temperature;BME280_humidity;BME280_pressure;Samples;Min_cycle;Max_cycle;Signal;HPM_P1;HPM_P2
2021/06/22 00:00:35;;;;;;;;;15.67;10.67;;;;;;;;3569592;39;113134;-76
2021/06/22 00:03:01;;;;;;;;;13.00;12.00;;;;;;;;3569816;39;113892;-77
2021/06/22 00:05:30;;;;;;;;;11.67;11.67;;;;;;;;3571363;39;111906;-77
2021/06/22 00:07:57;;;;;;;;;11.00;9.33;;;;;;;;3570417;39;115601;-77
2021/06/22 00:10:25;;;;;;;;;13.00;8.67;;;;;;;;3568782;39;112637;-77
2021/06/22 00:12:52;;;;;;;;;15.33;12.33;;;;;;;;3570756;39;113153;-75
2021/06/22 00:15:19;;;;;;;;;13.00;10.67;;;;;;;;3568440;39;113692;-78
2021/06/22 00:17:46;;;;;;;;;11.33;10.67;;;;;;;;3570074;39;111808;-78
2021/06/22 00:20:14;;;;;;;;;12.00;12.00;;;;;;;;3572707;39;113310;-78
2021/06/22 00:22:43;;;;;;;;;13.00;10.00;;;;;;;;3569156;39;114211;-77
2021/06/22 00:25:11;;;;;;;;;10.33;10.00;;;;;;;;3569360;39;112329;-77
2021/06/22 00:27:37;;;;;;;;;13.67;11.67;;;;;;;;3572228;39;115526;-78
2021/06/22 00:30:05;;;;;;;;;12.67;10.33;;;;;;;;3569425;39;111939;-78
2021/06/22 00:32:31;;;;;;;;;10.67;10.00;;;;;;;;3570289;39;113581;-80
2021/06/22 00:34:58;;;;;;;;;10.67;9.00;;;;;;;;3568465;39;113998;-78
2021/06/22 00:37:24;;;;;;;;;14.50;11.00;;;;;;;;3568673;39;112054;-79
2021/06/22 00:39:52;;;;;;;;;14.33;12.00;;;;;;;;3570482;39;114014;-77
2021/06/22 00:42:19;;;;;;;;;16.50;10.75;;;;;;;;3568486;39;114091;-77
2021/06/22 00:44:46;;;;;;;;;12.00;9.67;;;;;;;;3569992;39;111706;-77
2021/06/22 00:47:12;;;;;;;;;18.33;13.67;;;;;;;;3569407;39;113253;-77
2021/06/22 00:49:39;;;;;;;;;11.33;11.33;;;;;;;;3571846;39;113918;-78
2021/06/22 00:52:06;;;;;;;;;12.00;9.00;;;;;;;;3569813;39;113572;-77
2021/06/22 00:54:32;;;;;;;;;14.00;12.67;;;;;;;;3568623;39;113910;-78
2021/06/22 00:57:00;;;;;;;;;11.00;10.67;;;;;;;;3570178;39;112153;-78
2021/06/22 00:59:27;;;;;;;;;14.67;11.67;;;;;;;;3568828;39;113397;-77
2021/06/22 01:01:55;;;;;;;;;12.33;11.33;;;;;;;;3568280;39;114187;-78
2021/06/22 01:04:22;;;;;;;;;15.67;11.00;;;;;;;;3570255;39;111978;-78
2021/06/22 01:06:49;;;;;;;;;12.33;10.00;;;;;;;;3568687;39;113926;-77
2021/06/22 01:09:15;;;;;;;;;12.67;9.67;;;;;;;;3569276;39;113983;-77
2021/06/22 01:11:42;;;;;;;;;15.00;11.67;;;;;;;;3572009;39;111944;-78
2021/06/22 01:14:09;;;;;;;;;12.00;9.67;;;;;;;;3569296;39;113799;-77
2021/06/22 01:16:36;;;;;;;;;15.67;11.67;;;;;;;;3571013;39;112035;-78
2021/06/22 01:19:04;;;;;;;;;11.33;11.33;;;;;;;;3570049;39;112772;-77
2021/06/22 01:21:32;;;;;;;;;12.00;10.33;;;;;;;;3570865;39;113750;-78
2021/06/22 01:24:04;;;;;;;;;11.67;11.33;;;;;;;;3570244;39;111829;-77
2021/06/22 01:26:30;;;;;;;;;9.00;9.00;;;;;;;;3568888;39;113312;-78
2021/06/22 01:28:57;;;;;;;;;14.67;11.00;;;;;;;;3572026;39;113828;-78
2021/06/22 01:31:24;;;;;;;;;14.67;12.00;;;;;;;;3568470;39;111922;-77
2021/06/22 01:33:50;;;;;;;;;14.00;10.33;;;;;;;;3572350;39;113636;-77
2021/06/22 01:36:18;;;;;;;;;13.25;11.00;;;;;;;;3572332;39;114001;-76
2021/06/22 01:38:46;;;;;;;;;13.00;9.50;;;;;;;;3568945;39;113470;-77
2021/06/22 01:41:13;;;;;;;;;10.00;10.00;;;;;;;;3568981;39;114260;-78
2021/06/22 01:43:39;;;;;;;;;13.67;10.33;;;;;;;;3568686;39;111988;-77
2021/06/22 01:46:06;;;;;;;;;12.00;12.00;;;;;;;;3568993;39;113230;-77
2021/06/22 01:48:33;;;;;;;;;16.00;10.33;;;;;;;;3569250;39;113983;-77
2021/06/22 01:50:59;;;;;;;;;12.00;11.00;;;;;;;;3568812;39;111828;-77
2021/06/22 01:53:26;;;;;;;;;15.50;10.50;;;;;;;;3570638;39;114868;-78
2021/06/22 01:55:54;;;;;;;;;11.33;11.33;;;;;;;;3568560;39;111857;-77
2021/06/22 01:58:21;;;;;;;;;12.67;12.00;;;;;;;;3570124;39;113391;-77
2021/06/22 02:00:49;;;;;;;;;12.00;10.75;;;;;;;;3568092;39;113790;-77
2021/06/22 02:03:16;;;;;;;;;12.67;10.00;;;;;;;;3569514;39;112608;-77
2021/06/22 02:05:43;;;;;;;;;12.00;11.75;;;;;;;;3568047;39;113310;-78
2021/06/22 02:08:10;;;;;;;;;14.67;12.00;;;;;;;;3568720;39;113959;-77
2021/06/22 02:10:36;;;;;;;;;13.67;11.00;;;;;;;;3569077;39;112128;-77
2021/06/22 02:13:05;;;;;;;;;10.00;10.00;;;;;;;;3569651;39;113126;-77
2021/06/22 02:15:32;;;;;;;;;19.67;13.67;;;;;;;;3572668;39;114655;-78
2021/06/22 02:17:59;;;;;;;;;11.67;11.00;;;;;;;;3568394;39;113850;-77
2021/06/22 02:20:25;;;;;;;;;11.00;11.00;;;;;;;;3569697;39;113856;-77
2021/06/22 02:22:52;;;;;;;;;13.00;11.67;;;;;;;;3568096;39;113835;-77
2021/06/22 02:25:19;;;;;;;;;13.67;10.67;;;;;;;;3568333;39;113249;-77
2021/06/22 02:27:46;;;;;;;;;14.67;12.00;;;;;;;;3569281;39;114512;-78
2021/06/22 02:30:15;;;;;;;;;16.33;11.00;;;;;;;;3568714;39;112339;-77
2021/06/22 02:32:42;;;;;;;;;10.33;10.33;;;;;;;;3569619;39;113479;-77
2021/06/22 02:35:10;;;;;;;;;10.00;9.33;;;;;;;;3568521;39;114028;-78
2021/06/22 02:37:36;;;;;;;;;17.50;11.00;;;;;;;;3571838;39;112471;-78
2021/06/22 02:40:03;;;;;;;;;15.00;12.25;;;;;;;;3568800;39;113857;-78
2021/06/22 02:42:30;;;;;;;;;16.25;11.25;;;;;;;;3568495;39;112128;-78
2021/06/22 02:44:56;;;;;;;;;12.00;9.67;;;;;;;;3569725;39;113309;-77
2021/06/22 02:47:24;;;;;;;;;9.75;9.75;;;;;;;;3567642;39;114546;-77
2021/06/22 02:49:51;;;;;;;;;12.25;11.25;;;;;;;;3570207;39;112277;-77
2021/06/22 02:52:18;;;;;;;;;14.00;12.25;;;;;;;;3569404;39;113348;-77
2021/06/22 02:54:44;;;;;;;;;11.75;11.75;;;;;;;;3568753;39;113859;-78
2021/06/22 02:57:11;;;;;;;;;15.33;10.00;;;;;;;;3571524;39;112258;-77
2021/06/22 02:59:38;;;;;;;;;17.00;13.00;;;;;;;;3572532;39;113707;-77
2021/06/22 03:02:05;;;;;;;;;14.50;12.25;;;;;;;;3570765;39;111860;-77
2021/06/22 03:04:33;;;;;;;;;13.00;10.00;;;;;;;;3570688;39;113453;-77
2021/06/22 03:07:00;;;;;;;;;12.25;11.00;;;;;;;;3570684;39;113813;-77
2021/06/22 03:09:27;;;;;;;;;14.00;11.00;;;;;;;;3569959;39;111876;-78
2021/06/22 03:11:54;;;;;;;;;15.25;13.25;;;;;;;;3571745;39;113563;-77
2021/06/22 03:14:21;;;;;;;;;12.75;12.75;;;;;;;;3571687;39;113721;-81
2021/06/22 03:16:48;;;;;;;;;17.25;14.75;;;;;;;;3573474;39;112016;-78
2021/06/22 03:19:14;;;;;;;;;13.25;12.50;;;;;;;;3573011;39;113429;-79
2021/06/22 03:21:44;;;;;;;;;13.50;11.00;;;;;;;;3574651;39;113837;-79
2021/06/22 03:24:11;;;;;;;;;13.50;11.25;;;;;;;;3573470;39;113754;-76
2021/06/22 03:26:37;;;;;;;;;15.00;12.00;;;;;;;;3571522;39;113818;-77
2021/06/22 03:29:05;;;;;;;;;14.50;12.00;;;;;;;;3571574;39;112000;-73
2021/06/22 03:31:32;;;;;;;;;49.75;41.00;;;;;;;;3570606;39;113230;-74
2021/06/22 03:33:58;;;;;;;;;16.50;14.25;;;;;;;;3569687;39;113879;-78
2021/06/22 03:36:25;;;;;;;;;14.50;12.25;;;;;;;;3573260;39;112521;-75
2021/06/22 03:38:53;;;;;;;;;20.00;13.75;;;;;;;;3571539;39;113556;-76
2021/06/22 03:41:20;;;;;;;;;34.75;32.00;;;;;;;;3566822;39;114208;-75
2021/06/22 03:43:47;;;;;;;;;50.75;42.25;;;;;;;;3571907;39;113672;-78
2021/06/22 03:46:16;;;;;;;;;47.00;37.00;;;;;;;;3568620;39;113955;-78
2021/06/22 03:48:43;;;;;;;;;42.00;35.00;;;;;;;;3569201;39;112097;-77
2021/06/22 03:51:10;;;;;;;;;50.00;40.00;;;;;;;;3569722;39;113566;-76
2021/06/22 03:53:37;;;;;;;;;81.67;76.00;;;;;;;;3569226;39;113940;-79
2021/06/22 03:56:06;;;;;;;;;45.75;38.75;;;;;;;;3570552;39;111874;-79
2021/06/22 03:58:32;;;;;;;;;42.50;33.00;;;;;;;;3569157;39;113235;-78
2021/06/22 04:00:59;;;;;;;;;31.75;28.25;;;;;;;;3569274;39;114605;-78
2021/06/22 04:03:25;;;;;;;;;51.75;43.25;;;;;;;;3572676;39;112103;-79
2021/06/22 04:05:52;;;;;;;;;50.75;40.00;;;;;;;;3569200;39;114253;-79
2021/06/22 04:08:18;;;;;;;;;24.75;22.00;;;;;;;;3568821;39;112524;-79
2021/06/22 04:13:18;;;;;;;;;26.75;24.00;;;;;;;;3531365;39;113058;-81
2021/06/22 04:15:44;;;;;;;;;22.00;20.25;;;;;;;;3532471;39;111897;-83
2021/06/22 04:18:11;;;;;;;;;21.25;18.00;;;;;;;;3533301;39;112632;-82
2021/06/22 04:20:38;;;;;;;;;25.50;20.25;;;;;;;;3536429;39;114117;-82
2021/06/22 04:23:05;;;;;;;;;15.25;14.75;;;;;;;;3534447;39;111816;-82
2021/06/22 04:25:33;;;;;;;;;17.50;14.75;;;;;;;;3535233;39;113824;-81
2021/06/22 04:28:00;;;;;;;;;14.75;13.50;;;;;;;;3529034;39;112052;-82
2021/06/22 04:30:28;;;;;;;;;17.25;14.50;;;;;;;;3532106;39;113502;-79
2021/06/22 04:32:54;;;;;;;;;15.00;12.25;;;;;;;;3532183;39;113848;-80
2021/06/22 04:35:21;;;;;;;;;32.00;29.25;;;;;;;;3531471;39;111842;-81
2021/06/22 04:37:47;;;;;;;;;19.25;17.75;;;;;;;;3532585;39;113282;-80
2021/06/22 04:40:14;;;;;;;;;28.75;21.50;;;;;;;;3529236;39;113874;-81
2021/06/22 04:42:40;;;;;;;;;34.25;30.75;;;;;;;;3532354;39;112141;-81
2021/06/22 04:45:08;;;;;;;;;15.75;15.75;;;;;;;;3533587;39;113308;-82
2021/06/22 04:47:36;;;;;;;;;18.00;15.75;;;;;;;;3534701;39;114329;-82
2021/06/22 04:50:03;;;;;;;;;15.00;14.00;;;;;;;;3529625;39;113341;-83
2021/06/22 04:52:29;;;;;;;;;19.25;17.75;;;;;;;;3530421;39;114561;-82
2021/06/22 04:54:56;;;;;;;;;20.75;16.50;;;;;;;;3532570;39;112094;-80
2021/06/22 04:57:22;;;;;;;;;20.25;18.00;;;;;;;;3534246;39;113169;-82
2021/06/22 04:59:49;;;;;;;;;14.75;13.25;;;;;;;;3531905;39;114074;-83
2021/06/22 05:02:15;;;;;;;;;18.00;17.00;;;;;;;;3531274;39;112314;-81
2021/06/22 05:04:43;;;;;;;;;22.75;20.75;;;;;;;;3531491;39;113347;-82
2021/06/22 05:07:10;;;;;;;;;17.00;14.75;;;;;;;;3531936;39;113834;-82
2021/06/22 05:09:36;;;;;;;;;16.75;12.75;;;;;;;;3534779;39;112240;-83
2021/06/22 05:12:03;;;;;;;;;20.00;15.75;;;;;;;;3532736;39;113108;-81
2021/06/22 05:14:30;;;;;;;;;17.75;15.25;;;;;;;;3533475;39;111910;-82
2021/06/22 05:16:57;;;;;;;;;15.75;14.00;;;;;;;;3534118;39;113142;-83
2021/06/22 05:19:23;;;;;;;;;18.25;17.25;;;;;;;;3533386;39;114195;-83
2021/06/22 05:21:54;;;;;;;;;23.00;20.00;;;;;;;;3535013;39;111874;-81
2021/06/22 05:24:20;;;;;;;;;21.25;16.25;;;;;;;;3534446;39;113642;-81
2021/06/22 05:26:47;;;;;;;;;19.25;18.50;;;;;;;;3531865;39;114518;-82
2021/06/22 05:29:14;;;;;;;;;15.25;13.00;;;;;;;;3532839;39;112795;-83
2021/06/22 05:31:41;;;;;;;;;17.50;14.50;;;;;;;;3536387;39;113455;-76
2021/06/22 05:34:07;;;;;;;;;17.75;15.00;;;;;;;;3533659;39;111980;-74
2021/06/22 05:36:34;;;;;;;;;27.00;20.00;;;;;;;;3533896;39;113341;-73
2021/06/22 05:39:02;;;;;;;;;19.25;18.25;;;;;;;;3533250;39;113974;-73
2021/06/22 05:41:29;;;;;;;;;22.50;20.00;;;;;;;;3533718;39;111745;-72
2021/06/22 05:43:55;;;;;;;;;20.75;19.00;;;;;;;;3533821;39;113437;-72
2021/06/22 05:46:22;;;;;;;;;63.25;51.50;;;;;;;;3533078;39;114056;-72
2021/06/22 05:48:48;;;;;;;;;57.25;45.75;;;;;;;;3532228;39;112115;-71
2021/06/22 05:51:15;;;;;;;;;35.00;31.00;;;;;;;;3531004;39;113766;-72
2021/06/22 05:53:41;;;;;;;;;27.75;26.25;;;;;;;;3535687;39;111816;-71
2021/06/22 05:56:09;;;;;;;;;17.75;15.75;;;;;;;;3533686;39;113383;-73
2021/06/22 05:58:36;;;;;;;;;20.00;17.00;;;;;;;;3533258;39;113558;-71
2021/06/22 06:01:02;;;;;;;;;44.00;38.00;;;;;;;;3533526;39;111944;-72
2021/06/22 06:03:29;;;;;;;;;20.75;19.00;;;;;;;;3531832;39;112442;-73
2021/06/22 06:05:56;;;;;;;;;24.50;21.75;;;;;;;;3532075;39;114101;-71
2021/06/22 06:08:22;;;;;;;;;22.25;21.75;;;;;;;;3532205;39;112238;-72
2021/06/22 06:10:49;;;;;;;;;22.00;18.75;;;;;;;;3531800;39;113812;-72
2021/06/22 06:13:17;;;;;;;;;21.00;19.25;;;;;;;;3534822;39;113885;-71
2021/06/22 06:15:43;;;;;;;;;46.50;38.75;;;;;;;;3532405;39;113300;-71
2021/06/22 06:18:10;;;;;;;;;25.00;20.00;;;;;;;;3531634;39;112917;-72
2021/06/22 06:20:37;;;;;;;;;35.25;31.75;;;;;;;;3532636;39;113427;-71
2021/06/22 06:23:04;;;;;;;;;20.00;20.00;;;;;;;;3532228;39;113642;-71
2021/06/22 06:25:31;;;;;;;;;17.25;16.00;;;;;;;;3532028;39;114335;-71
2021/06/22 06:28:00;;;;;;;;;19.00;17.75;;;;;;;;3531765;39;112854;-71
2021/06/22 06:30:30;;;;;;;;;21.00;17.50;;;;;;;;3532097;39;114822;-76
2021/06/22 06:32:57;;;;;;;;;21.25;16.00;;;;;;;;3531924;39;115213;-78
2021/06/22 06:35:24;;;;;;;;;20.25;18.00;;;;;;;;3534793;39;112144;-75
2021/06/22 06:37:51;;;;;;;;;20.00;17.50;;;;;;;;3531865;39;114537;-74
2021/06/22 06:40:18;;;;;;;;;19.00;17.75;;;;;;;;3531976;39;112726;-75
2021/06/22 06:42:45;;;;;;;;;17.00;14.75;;;;;;;;3529687;39;112341;-76
2021/06/22 06:45:12;;;;;;;;;17.75;17.00;;;;;;;;3531732;39;114150;-76
2021/06/22 06:47:40;;;;;;;;;19.25;17.50;;;;;;;;3531805;39;112335;-76
2021/06/22 06:50:07;;;;;;;;;28.50;26.50;;;;;;;;3532176;39;113716;-75
2021/06/22 06:52:34;;;;;;;;;24.50;19.75;;;;;;;;3531724;39;112960;-75
2021/06/22 06:55:01;;;;;;;;;17.00;15.00;;;;;;;;3532455;39;111859;-76
2021/06/22 06:57:28;;;;;;;;;32.25;29.25;;;;;;;;3534638;39;113324;-76
2021/06/22 06:59:54;;;;;;;;;31.25;28.00;;;;;;;;3533000;39;112154;-76
2021/06/22 07:02:21;;;;;;;;;61.25;47.25;;;;;;;;3533270;39;113425;-75
2021/06/22 07:04:49;;;;;;;;;33.00;28.25;;;;;;;;3532317;39;114315;-75
2021/06/22 07:07:18;;;;;;;;;18.25;17.00;;;;;;;;3532919;39;111944;-75
2021/06/22 07:09:45;;;;;;;;;18.00;14.00;;;;;;;;3533084;39;113721;-76
2021/06/22 07:12:12;;;;;;;;;59.25;47.75;;;;;;;;3532555;39;114025;-76
2021/06/22 07:14:38;;;;;;;;;45.75;37.00;;;;;;;;3532995;39;111881;-75
2021/06/22 07:17:07;;;;;;;;;17.00;15.67;;;;;;;;3532904;39;113865;-75
2021/06/22 07:19:34;;;;;;;;;17.00;16.33;;;;;;;;3535362;39;113612;-74
2021/06/22 07:22:01;;;;;;;;;30.25;26.75;;;;;;;;3533118;39;113233;-73
2021/06/22 07:24:28;;;;;;;;;30.50;25.75;;;;;;;;3531347;39;113989;-72
2021/06/22 07:26:55;;;;;;;;;12.67;9.67;;;;;;;;3531234;39;112057;-73
2021/06/22 07:29:21;;;;;;;;;41.50;35.75;;;;;;;;3532775;39;113240;-73
2021/06/22 07:31:48;;;;;;;;;34.50;30.25;;;;;;;;3530213;39;113872;-72
2021/06/22 07:34:14;;;;;;;;;21.33;20.33;;;;;;;;3531434;39;113024;-73
2021/06/22 07:36:41;;;;;;;;;34.25;29.00;;;;;;;;3531451;39;113526;-72
2021/06/22 07:39:09;;;;;;;;;14.33;11.33;;;;;;;;3528793;39;113887;-72
2021/06/22 07:41:35;;;;;;;;;25.33;24.67;;;;;;;;3535958;39;112106;-72
2021/06/22 07:44:02;;;;;;;;;40.25;33.00;;;;;;;;3533880;39;114055;-74
2021/06/22 07:46:28;;;;;;;;;15.67;15.33;;;;;;;;3533850;39;112477;-70
2021/06/22 07:48:55;;;;;;;;;21.67;17.67;;;;;;;;3533333;39;112929;-72
2021/06/22 07:51:22;;;;;;;;;20.00;16.33;;;;;;;;3532688;39;114454;-71
2021/06/22 07:53:48;;;;;;;;;15.33;12.33;;;;;;;;3533327;39;111873;-75
2021/06/22 07:56:16;;;;;;;;;14.00;10.00;;;;;;;;3532408;39;112298;-74
2021/06/22 07:58:43;;;;;;;;;11.67;11.00;;;;;;;;3532745;39;113877;-74
2021/06/22 08:01:09;;;;;;;;;14.00;11.33;;;;;;;;3535411;39;111970;-73
2021/06/22 08:03:36;;;;;;;;;11.00;10.00;;;;;;;;3532854;39;114684;-73
2021/06/22 08:06:03;;;;;;;;;14.67;11.00;;;;;;;;3533228;39;112282;-74
2021/06/22 08:08:31;;;;;;;;;17.67;12.67;;;;;;;;3532753;39;113600;-76
2021/06/22 08:10:57;;;;;;;;;11.67;10.67;;;;;;;;3532624;39;115943;-75
2021/06/22 08:13:25;;;;;;;;;14.00;12.00;;;;;;;;3534572;39;112223;-74
2021/06/22 08:15:52;;;;;;;;;12.67;10.00;;;;;;;;3532823;39;113762;-72
2021/06/22 08:18:19;;;;;;;;;13.00;11.00;;;;;;;;3532549;39;114013;-72
2021/06/22 08:20:46;;;;;;;;;17.00;13.67;;;;;;;;3533913;39;112036;-73
2021/06/22 08:23:14;;;;;;;;;12.67;10.67;;;;;;;;3533586;39;113891;-75
2021/06/22 08:25:41;;;;;;;;;13.33;11.67;;;;;;;;3534044;39;111826;-74
2021/06/22 08:28:07;;;;;;;;;14.00;12.00;;;;;;;;3533823;39;114363;-75
2021/06/22 08:30:36;;;;;;;;;12.33;11.67;;;;;;;;3533801;39;113951;-74
2021/06/22 08:33:03;;;;;;;;;13.33;11.67;;;;;;;;3533797;39;111902;-75
2021/06/22 08:35:31;;;;;;;;;13.75;11.25;;;;;;;;3534398;39;113293;-77
2021/06/22 08:37:58;;;;;;;;;11.75;9.00;;;;;;;;3533727;39;114106;-77
2021/06/22 08:40:25;;;;;;;;;16.00;11.00;;;;;;;;3534646;39;112033;-71
2021/06/22 08:42:52;;;;;;;;;41.33;34.67;;;;;;;;3533832;39;114013;-71
2021/06/22 08:45:18;;;;;;;;;11.00;9.75;;;;;;;;3534076;39;114187;-71
2021/06/22 08:47:47;;;;;;;;;32.67;30.00;;;;;;;;3533214;39;113308;-71
2021/06/22 08:50:14;;;;;;;;;14.50;9.00;;;;;;;;3533215;39;113070;-83
2021/06/22 08:52:42;;;;;;;;;12.25;11.50;;;;;;;;3534595;39;112726;-85
2021/06/22 08:55:25;;;;;;;;;12.50;12.00;;;;;;;;3533969;39;113515;-76
2021/06/22 08:57:52;;;;;;;;;33.00;26.00;;;;;;;;3532742;39;113920;-81
2021/06/22 09:00:19;;;;;;;;;44.00;35.33;;;;;;;;3531479;39;111837;-76
2021/06/22 09:02:56;;;;;;;;;52.33;40.67;;;;;;;;3533744;39;114172;-82
2021/06/22 09:05:25;;;;;;;;;41.33;34.67;;;;;;;;3531943;39;113948;-76
2021/06/22 09:07:53;;;;;;;;;36.33;29.33;;;;;;;;3534828;39;112876;-77
2021/06/22 09:10:21;;;;;;;;;47.67;38.33;;;;;;;;3531275;39;114316;-75
2021/06/22 09:12:48;;;;;;;;;35.67;31.00;;;;;;;;3532871;39;112226;-77
2021/06/22 09:15:18;;;;;;;;;9.25;9.25;;;;;;;;3531079;39;113918;-74
2021/06/22 09:17:46;;;;;;;;;51.67;41.67;;;;;;;;3530424;39;114350;-73
2021/06/22 09:20:14;;;;;;;;;25.00;21.00;;;;;;;;3532376;39;112880;-77
2021/06/22 09:22:41;;;;;;;;;21.67;18.67;;;;;;;;3532345;39;113371;-76
2021/06/22 09:25:09;;;;;;;;;18.67;17.67;;;;;;;;3531783;39;113766;-74
2021/06/22 09:27:49;;;;;;;;;13.33;12.67;;;;;;;;3532419;39;112019;-73
2021/06/22 09:30:16;;;;;;;;;14.00;10.00;;;;;;;;3535388;39;114029;-72
2021/06/22 11:36:30;;;;;;;;;22.33;18.67;;;;;;;;3578654;39;156198;-75
2021/06/22 11:39:11;;;;;;;;;22.00;17.33;;;;;;;;3583825;39;114268;-76
2021/06/22 11:41:38;;;;;;;;;26.67;23.67;;;;;;;;3586965;39;111991;-77
2021/06/22 11:44:23;;;;;;;;;33.25;30.00;;;;;;;;3586616;39;113318;-77
2021/06/22 11:46:49;;;;;;;;;24.00;20.33;;;;;;;;3584607;39;113848;-75
2021/06/22 11:49:18;;;;;;;;;32.00;28.00;;;;;;;;3587143;39;114177;-74
2021/06/22 11:52:04;;;;;;;;;19.33;16.00;;;;;;;;3585986;39;113119;-74
2021/06/22 11:54:51;;;;;;;;;18.67;11.33;;;;;;;;3584740;39;113875;-75
2021/06/22 11:57:19;;;;;;;;;13.33;12.00;;;;;;;;3585954;39;111943;-74
2021/06/22 11:59:47;;;;;;;;;34.00;30.00;;;;;;;;3586942;39;113840;-73
2021/06/22 12:02:15;;;;;;;;;14.00;12.33;;;;;;;;3585609;39;112033;-77
2021/06/22 12:04:41;;;;;;;;;13.67;12.00;;;;;;;;3582859;39;113228;-77
2021/06/22 12:07:08;;;;;;;;;12.00;11.00;;;;;;;;3584653;39;113768;-74
2021/06/22 12:09:35;;;;;;;;;9.00;9.00;;;;;;;;3586171;39;112075;-77
2021/06/22 12:12:02;;;;;;;;;13.00;12.00;;;;;;;;3584386;39;113138;-74
2021/06/22 12:14:31;;;;;;;;;12.00;12.00;;;;;;;;3584397;39;113884;-76
2021/06/22 12:16:58;;;;;;;;;13.33;12.00;;;;;;;;3586006;39;112222;-76
2021/06/22 12:19:25;;;;;;;;;18.00;15.67;;;;;;;;3589759;39;113152;-79
2021/06/22 12:21:52;;;;;;;;;10.33;8.00;;;;;;;;3585991;39;112112;-79
2021/06/22 12:24:20;;;;;;;;;10.00;7.67;;;;;;;;3582193;39;113534;-77
2021/06/22 12:26:51;;;;;;;;;9.67;9.00;;;;;;;;3585677;39;114067;-82
2021/06/22 12:29:21;;;;;;;;;12.00;12.00;;;;;;;;3583872;39;111847;-77
2021/06/22 12:31:53;;;;;;;;;27.33;21.67;;;;;;;;3583532;39;113695;-80
2021/06/22 12:34:19;;;;;;;;;13.00;10.00;;;;;;;;3583500;39;113965;-77
2021/06/22 12:36:46;;;;;;;;;10.00;9.67;;;;;;;;3587294;39;112511;-77
2021/06/22 12:39:15;;;;;;;;;11.67;10.33;;;;;;;;3585957;39;113299;-76
2021/06/22 12:41:42;;;;;;;;;11.33;9.33;;;;;;;;3589328;39;113985;-76
2021/06/22 12:44:09;;;;;;;;;13.33;10.33;;;;;;;;3586210;39;113530;-75
2021/06/22 12:46:36;;;;;;;;;14.67;11.33;;;;;;;;3576595;39;112869;-81
2021/06/22 12:49:06;;;;;;;;;13.33;11.33;;;;;;;;3578536;39;112147;-77
2021/06/22 12:51:33;;;;;;;;;9.33;8.33;;;;;;;;3580004;39;113367;-78
2021/06/22 12:54:00;;;;;;;;;6.67;6.00;;;;;;;;3580437;39;113813;-76
2021/06/22 12:56:30;;;;;;;;;12.33;9.00;;;;;;;;3579070;39;112753;-73
2021/06/22 12:58:57;;;;;;;;;29.00;25.00;;;;;;;;3580060;39;113759;-73
2021/06/22 13:01:31;;;;;;;;;41.00;32.33;;;;;;;;3557698;39;114190;-76
2021/06/22 13:03:58;;;;;;;;;31.67;29.00;;;;;;;;3526349;39;111986;-77
2021/06/22 13:06:26;;;;;;;;;16.00;15.00;;;;;;;;3552909;39;114139;-77
2021/06/22 13:08:54;;;;;;;;;22.33;21.33;;;;;;;;3553962;39;111944;-77
2021/06/22 13:11:24;;;;;;;;;24.00;22.33;;;;;;;;3551409;39;116652;-78
2021/06/22 13:13:51;;;;;;;;;29.00;26.33;;;;;;;;3549876;39;114095;-75
2021/06/22 13:16:18;;;;;;;;;15.67;11.00;;;;;;;;3551530;39;111887;-78
2021/06/22 13:18:57;;;;;;;;;10.00;9.67;;;;;;;;3554010;39;113298;-80
2021/06/22 13:21:25;;;;;;;;;21.00;18.00;;;;;;;;3551794;39;114302;-80
2021/06/22 13:23:53;;;;;;;;;21.33;19.00;;;;;;;;3554058;39;111954;-75
2021/06/22 13:26:25;;;;;;;;;9.00;7.00;;;;;;;;3556264;39;113517;-73
2021/06/22 13:28:55;;;;;;;;;18.33;18.33;;;;;;;;3552332;39;112111;-74
2021/06/22 13:31:22;;;;;;;;;16.33;13.00;;;;;;;;3554021;39;113211;-73
2021/06/22 13:33:58;;;;;;;;;11.33;11.33;;;;;;;;3553404;39;113966;-73
2021/06/22 13:36:25;;;;;;;;;38.25;31.75;;;;;;;;3550234;39;111855;-72
2021/06/22 13:39:01;;;;;;;;;13.00;13.00;;;;;;;;3553904;39;113623;-73
2021/06/22 13:41:28;;;;;;;;;10.33;9.00;;;;;;;;3553291;39;113832;-71
2021/06/22 13:43:54;;;;;;;;;10.33;9.00;;;;;;;;3553901;39;111904;-70
2021/06/22 13:46:24;;;;;;;;;11.67;8.67;;;;;;;;3549108;39;112411;-71
2021/06/22 13:48:52;;;;;;;;;11.00;9.00;;;;;;;;3555133;39;112190;-71
2021/06/22 13:51:24;;;;;;;;;9.00;8.33;;;;;;;;3553886;39;113381;-71
2021/06/22 13:53:51;;;;;;;;;13.33;11.33;;;;;;;;3551614;39;112929;-74
2021/06/22 13:56:20;;;;;;;;;6.67;6.67;;;;;;;;3553713;39;112093;-75
2021/06/22 13:58:46;;;;;;;;;11.00;7.67;;;;;;;;3551240;39;111953;-74
2021/06/22 14:01:15;;;;;;;;;11.00;8.33;;;;;;;;3552131;39;114275;-70
2021/06/22 14:03:41;;;;;;;;;10.33;7.00;;;;;;;;3552547;39;112189;-69
2021/06/22 14:06:10;;;;;;;;;12.00;9.00;;;;;;;;3553983;39;113686;-69
2021/06/22 14:08:38;;;;;;;;;11.00;8.00;;;;;;;;3556035;39;114615;-71
2021/06/22 14:11:05;;;;;;;;;6.67;6.67;;;;;;;;3551936;39;112790;-68
2021/06/22 14:13:33;;;;;;;;;10.00;7.33;;;;;;;;3550515;39;113905;-71
2021/06/22 14:16:00;;;;;;;;;9.00;9.00;;;;;;;;3553735;39;111981;-70
2021/06/22 14:18:27;;;;;;;;;9.33;9.33;;;;;;;;3553783;39;113155;-70
2021/06/22 14:20:54;;;;;;;;;10.00;8.67;;;;;;;;3553249;39;114060;-69
2021/06/22 14:31:07;;;;;;;;;11.33;11.33;;;;;;;;4786724;22;114074;-71
2021/06/22 14:33:34;;;;;;;;;11.00;8.67;;;;;;;;3509085;40;113780;-70
2021/06/22 14:36:01;;;;;;;;;8.33;7.00;;;;;;;;3509663;39;112162;-70
2021/06/22 14:38:28;;;;;;;;;10.33;8.33;;;;;;;;3509081;40;113422;-71
2021/06/22 14:40:55;;;;;;;;;8.33;7.67;;;;;;;;3506229;39;113086;-69
2021/06/22 14:43:22;;;;;;;;;11.33;9.33;;;;;;;;3509376;39;111828;-72
2021/06/22 14:45:48;;;;;;;;;9.00;8.67;;;;;;;;3508141;40;113325;-71
2021/06/22 14:48:16;;;;;;;;;9.00;9.00;;;;;;;;3509537;40;113951;-70
2021/06/22 14:50:44;;;;;;;;;12.00;10.00;;;;;;;;3507010;40;112455;-73
2021/06/22 14:53:11;;;;;;;;;11.33;8.33;;;;;;;;3512272;40;113692;-77
2021/06/22 14:55:38;;;;;;;;;12.33;9.67;;;;;;;;3509268;39;112643;-74
2021/06/22 14:58:05;;;;;;;;;10.33;9.00;;;;;;;;3512851;39;113786;-73
2021/06/22 15:00:32;;;;;;;;;8.67;8.67;;;;;;;;3511543;39;113871;-73
2021/06/22 15:02:58;;;;;;;;;12.33;9.00;;;;;;;;3512365;40;111998;-74
2021/06/22 15:05:27;;;;;;;;;10.00;10.00;;;;;;;;3513129;40;113700;-82
2021/06/22 15:07:54;;;;;;;;;12.67;11.00;;;;;;;;3511794;40;113789;-81
2021/06/22 15:10:21;;;;;;;;;5.67;5.33;;;;;;;;3513424;39;112384;-78
2021/06/22 15:12:48;;;;;;;;;10.00;9.00;;;;;;;;3510945;39;113575;-85
2021/06/22 15:15:16;;;;;;;;;12.00;11.00;;;;;;;;3510231;40;114444;-80
2021/06/22 21:41:20;;;;;;;;;7.67;4.67;;;;;;;;3579327;39;112000;-75
2021/06/22 21:43:47;;;;;;;;;6.00;6.00;;;;;;;;3566769;39;114622;-75
2021/06/22 21:46:13;;;;;;;;;4.33;4.33;;;;;;;;3565579;39;111952;-75
2021/06/22 21:48:40;;;;;;;;;7.00;6.00;;;;;;;;3569629;39;113341;-76
2021/06/22 21:51:06;;;;;;;;;6.67;6.67;;;;;;;;3567760;39;114002;-78
2021/06/22 21:53:33;;;;;;;;;5.67;5.00;;;;;;;;3566071;39;112301;-74
2021/06/22 21:56:00;;;;;;;;;5.00;5.00;;;;;;;;3566441;39;114879;-77
2021/06/22 21:58:28;;;;;;;;;4.00;3.67;;;;;;;;3565394;39;113895;-77
2021/06/22 22:00:54;;;;;;;;;5.67;5.67;;;;;;;;3568915;39;112313;-78
2021/06/22 22:03:21;;;;;;;;;5.67;5.00;;;;;;;;3565180;39;113870;-77
2021/06/22 22:05:47;;;;;;;;;4.67;4.33;;;;;;;;3567185;39;111810;-76
2021/06/22 22:08:14;;;;;;;;;3.33;3.33;;;;;;;;3565441;39;113281;-75
2021/06/22 22:10:41;;;;;;;;;6.67;6.33;;;;;;;;3567159;39;113815;-82
2021/06/22 22:13:07;;;;;;;;;8.00;6.00;;;;;;;;3565770;39;112043;-78
2021/06/22 22:15:35;;;;;;;;;5.33;5.00;;;;;;;;3566961;39;113255;-75
2021/06/22 22:18:02;;;;;;;;;6.00;5.00;;;;;;;;3565468;39;113917;-76
2021/06/22 22:20:28;;;;;;;;;6.67;6.00;;;;;;;;3566215;39;112090;-75
2021/06/22 22:22:55;;;;;;;;;5.33;4.67;;;;;;;;3526416;39;113190;-74
2021/06/22 22:25:22;;;;;;;;;6.00;6.00;;;;;;;;3539023;39;112095;-74
2021/06/22 22:27:48;;;;;;;;;8.67;5.33;;;;;;;;3535807;39;114212;-73
2021/06/22 22:30:15;;;;;;;;;6.33;5.33;;;;;;;;3535211;39;113966;-75
2021/06/22 22:32:44;;;;;;;;;7.33;6.00;;;;;;;;3534699;39;112878;-75
2021/06/22 22:35:14;;;;;;;;;5.33;4.33;;;;;;;;3536196;39;113318;-74
2021/06/22 22:37:41;;;;;;;;;7.00;5.00;;;;;;;;3534222;39;113752;-74
2021/06/22 22:40:09;;;;;;;;;5.33;5.33;;;;;;;;3536283;39;112637;-75
2021/06/22 22:42:36;;;;;;;;;5.33;5.00;;;;;;;;3537139;39;113615;-75
2021/06/22 22:45:03;;;;;;;;;5.33;4.67;;;;;;;;3538000;39;114123;-74
2021/06/22 22:47:29;;;;;;;;;7.00;7.00;;;;;;;;3535087;39;112274;-74